createdAt,value
2019-02-06T00:02:18.792Z,99.90
2019-02-06T00:04:48.315Z,99.90
2019-02-06T00:07:17.791Z,99.90
2019-02-06T00:09:47.338Z,99.90
2019-02-06T00:12:18.194Z,99.90
2019-02-06T00:14:47.724Z,99.90
2019-02-06T00:17:17.287Z,99.90
2019-02-06T00:19:46.809Z,99.90
2019-02-06T00:22:17.697Z,99.90
2019-02-06T00:24:47.214Z,99.90
2019-02-06T00:27:16.699Z,99.90
2019-02-06T00:29:46.219Z,99.90
2019-02-06T00:32:17.255Z,99.90
2019-02-06T00:34:46.812Z,99.90
2019-02-06T00:37:16.269Z,99.90
2019-02-06T00:39:45.779Z,99.90
2019-02-06T00:42:15.562Z,99.90
2019-02-06T00:44:45.087Z,99.90
2019-02-06T00:47:14.642Z,99.90
2019-02-06T00:49:44.161Z,99.90
2019-02-06T00:52:13.642Z,99.90
2019-02-06T00:54:43.158Z,99.90
2019-02-06T00:57:13.234Z,99.90
2019-02-06T00:59:42.720Z,99.90
2019-02-06T01:02:13.847Z,99.90
2019-02-06T01:04:43.358Z,99.90
2019-02-06T01:07:14.148Z,99.90
2019-02-06T01:09:43.667Z,99.90
2019-02-06T01:12:13.756Z,99.90
2019-02-06T01:14:43.318Z,99.90
2019-02-06T01:17:14.108Z,99.90
2019-02-06T01:19:43.628Z,99.90
2019-02-06T01:22:13.192Z,99.90
2019-02-06T01:24:42.754Z,99.90
2019-02-06T01:27:12.743Z,99.90
2019-02-06T01:29:42.279Z,99.90
2019-02-06T01:32:13.213Z,99.90
2019-02-06T01:34:42.723Z,99.90
2019-02-06T01:37:13.506Z,99.90
2019-02-06T01:39:43.039Z,99.90
2019-02-06T01:42:12.829Z,99.90
2019-02-06T01:44:42.355Z,99.90
2019-02-06T01:47:11.950Z,99.90
2019-02-06T01:49:41.438Z,99.90
2019-02-06T01:52:12.258Z,99.90
2019-02-06T01:54:41.679Z,99.90
2019-02-06T01:57:11.502Z,99.90
2019-02-06T01:59:40.923Z,99.90
2019-02-06T02:02:10.516Z,99.90
2019-02-06T02:04:40.012Z,99.90
2019-02-06T02:07:10.843Z,99.90
2019-02-06T02:09:40.323Z,99.90
2019-02-06T02:12:12.032Z,99.90
2019-02-06T02:14:41.902Z,99.90
2019-02-06T02:17:11.491Z,99.90
2019-02-06T02:19:40.984Z,99.90
2019-02-06T02:22:12.204Z,99.90
2019-02-06T02:24:41.771Z,99.90
2019-02-06T02:27:12.767Z,99.90
2019-02-06T02:29:42.260Z,99.90
2019-02-06T02:32:11.855Z,99.90
2019-02-06T02:34:41.355Z,99.90
2019-02-06T02:37:10.891Z,99.90
2019-02-06T02:39:41.990Z,99.90
2019-02-06T02:42:12.835Z,99.90
2019-02-06T02:44:42.314Z,99.90
2019-02-06T02:47:11.772Z,99.90
2019-02-06T02:49:41.259Z,99.90
2019-02-06T02:52:11.980Z,99.90
2019-02-06T02:54:42.072Z,99.90
2019-02-06T02:57:11.584Z,99.90
2019-02-06T02:59:41.067Z,99.90
2019-02-06T03:02:27.222Z,99.90
2019-02-06T03:04:57.394Z,99.90
2019-02-06T03:07:28.215Z,99.90
2019-02-06T03:09:57.687Z,99.90
2019-02-06T03:12:28.404Z,99.90
2019-02-06T03:14:57.892Z,99.90
2019-02-06T03:17:27.424Z,99.90
2019-02-06T03:19:57.142Z,99.90
2019-02-06T03:22:27.967Z,99.90
2019-02-06T03:24:57.460Z,99.90
2019-02-06T03:27:28.582Z,99.90
2019-02-06T03:29:58.012Z,99.90
2019-02-06T03:32:28.831Z,99.90
2019-02-06T03:34:58.750Z,99.90
2019-02-06T03:37:29.669Z,99.90
2019-02-06T03:39:59.154Z,99.90
2019-02-06T03:42:30.100Z,99.90
2019-02-06T03:44:59.634Z,99.90
2019-02-06T03:47:30.629Z,99.90
2019-02-06T03:50:00.093Z,99.90
2019-02-06T03:52:31.244Z,99.90
2019-02-06T03:55:00.688Z,99.90
2019-02-06T03:57:31.783Z,99.90
2019-02-06T04:00:01.233Z,99.90
2019-02-06T04:02:32.180Z,99.90
2019-02-06T04:05:01.638Z,99.90
2019-02-06T04:07:32.419Z,99.90
2019-02-06T04:10:01.940Z,99.90
2019-02-06T04:12:32.898Z,99.90
2019-02-06T04:15:02.360Z,99.90
2019-02-06T04:17:33.555Z,99.90
2019-02-06T04:20:03.083Z,99.90
2019-02-06T04:22:33.963Z,99.90
2019-02-06T04:25:03.657Z,99.90
2019-02-06T04:27:34.918Z,99.90
2019-02-06T04:30:06.152Z,99.90
2019-02-06T04:32:37.114Z,99.90
2019-02-06T04:35:09.051Z,99.90
2019-02-06T04:37:39.867Z,99.90
2019-02-06T04:40:12.428Z,99.90
2019-02-06T04:42:43.116Z,99.90
2019-02-06T04:45:15.169Z,99.90
2019-02-06T04:47:45.956Z,99.90
2019-02-06T04:50:16.813Z,99.90
2019-02-06T04:52:47.822Z,99.90
2019-02-06T04:55:18.295Z,99.90
2019-02-06T04:57:49.306Z,99.90
2019-02-06T05:00:24.279Z,99.90
2019-02-06T05:02:53.747Z,99.90
2019-02-06T05:05:23.318Z,99.90
2019-02-06T05:07:52.741Z,99.90
2019-02-06T05:10:22.299Z,99.90
2019-02-06T05:12:51.703Z,99.90
2019-02-06T05:15:22.432Z,99.90
2019-02-06T05:17:51.916Z,99.90
2019-02-06T05:20:37.911Z,99.90
2019-02-06T05:23:08.231Z,99.90
2019-02-06T05:25:37.684Z,99.90
2019-02-06T05:28:07.103Z,99.90
2019-02-06T05:30:37.815Z,99.90
2019-02-06T05:33:07.243Z,99.90
2019-02-06T05:35:38.055Z,99.90
2019-02-06T05:38:08.038Z,99.90
2019-02-06T05:40:37.487Z,99.90
2019-02-06T05:43:06.931Z,99.90
2019-02-06T05:45:36.350Z,99.90
2019-02-06T05:48:05.880Z,99.90
2019-02-06T05:50:36.659Z,99.90
2019-02-06T05:53:06.611Z,99.90
2019-02-06T05:55:37.499Z,99.90
2019-02-06T05:58:06.928Z,99.90
2019-02-06T06:00:38.923Z,99.90
2019-02-06T06:03:08.380Z,99.90
2019-02-06T06:05:37.799Z,99.90
2019-02-06T06:08:07.726Z,99.90
2019-02-06T06:10:38.643Z,99.90
2019-02-06T06:13:08.088Z,99.90
2019-02-06T06:15:37.512Z,99.90
2019-02-06T06:18:07.027Z,99.90
2019-02-06T06:20:38.015Z,99.90
2019-02-06T06:23:07.970Z,99.90
2019-02-06T06:25:37.473Z,99.90
2019-02-06T06:28:06.920Z,99.90
2019-02-06T06:30:37.707Z,99.90
2019-02-06T06:33:07.160Z,99.90
2019-02-06T06:35:37.860Z,99.90
2019-02-06T06:38:07.816Z,99.90
2019-02-06T06:40:38.920Z,99.90
2019-02-06T06:43:08.445Z,99.90
2019-02-06T06:45:37.864Z,99.90
2019-02-06T06:48:07.332Z,99.90
2019-02-06T06:50:38.011Z,99.90
2019-02-06T06:53:07.948Z,99.90
2019-02-06T06:55:37.355Z,99.90
2019-02-06T06:58:06.769Z,99.90
2019-02-06T07:00:37.762Z,99.90
2019-02-06T07:03:07.255Z,99.90
2019-02-06T07:05:36.788Z,99.90
2019-02-06T07:08:09.646Z,99.90
2019-02-06T07:10:37.778Z,99.90
2019-02-06T07:13:07.217Z,99.90
2019-02-06T07:15:38.026Z,99.90
2019-02-06T07:18:07.447Z,99.90
2019-02-06T07:20:36.967Z,99.90
2019-02-06T07:23:06.376Z,99.90
2019-02-06T07:25:35.819Z,99.90
2019-02-06T07:28:07.208Z,99.90
2019-02-06T07:30:37.647Z,99.90
2019-02-06T07:33:07.060Z,99.90
2019-02-06T07:35:37.996Z,99.90
2019-02-06T07:38:07.479Z,99.90
2019-02-06T07:40:36.945Z,99.90
2019-02-06T07:43:06.434Z,99.90
2019-02-06T07:45:37.154Z,99.90
2019-02-06T07:48:06.851Z,99.90
2019-02-06T07:50:36.362Z,99.90
2019-02-06T07:53:05.774Z,99.90
2019-02-06T07:55:36.707Z,99.90
2019-02-06T07:58:06.194Z,99.90
2019-02-06T08:00:35.706Z,99.90
2019-02-06T08:03:05.660Z,99.90
2019-02-06T08:05:35.591Z,99.90
2019-02-06T08:08:06.539Z,99.90
2019-02-06T08:10:37.605Z,99.90
2019-02-06T08:13:07.050Z,99.90
2019-02-06T08:15:37.780Z,99.90
2019-02-06T08:18:07.200Z,99.90
2019-02-06T08:20:38.619Z,99.90
2019-02-06T08:23:08.051Z,99.90
2019-02-06T08:25:37.602Z,99.90
2019-02-06T08:28:07.020Z,99.90
2019-02-06T08:30:39.138Z,99.90
2019-02-06T08:33:08.613Z,99.90
2019-02-06T08:35:39.538Z,99.90
2019-02-06T08:38:09.035Z,99.90
2019-02-06T08:40:38.558Z,99.90
2019-02-06T08:43:08.119Z,99.90
2019-02-06T08:45:38.823Z,99.90
2019-02-06T08:48:08.672Z,99.90
2019-02-06T08:50:39.349Z,99.90
2019-02-06T08:53:08.918Z,99.90
2019-02-06T08:55:39.703Z,99.90
2019-02-06T08:58:09.154Z,99.90
2019-02-06T09:00:40.611Z,99.90
2019-02-06T09:03:10.870Z,99.90
2019-02-06T09:05:40.356Z,99.90
2019-02-06T09:08:10.296Z,99.90
2019-02-06T09:10:41.160Z,99.90
2019-02-06T09:13:10.606Z,99.90
2019-02-06T09:15:41.566Z,99.90
2019-02-06T09:18:11.559Z,99.90
2019-02-06T09:20:41.043Z,99.90
2019-02-06T09:23:10.560Z,99.90
2019-02-06T09:25:40.087Z,99.90
2019-02-06T09:28:09.695Z,99.90
2019-02-06T09:30:39.132Z,99.90
2019-02-06T09:33:08.843Z,99.90
2019-02-06T09:35:38.444Z,99.90
2019-02-06T09:38:07.879Z,99.90
2019-02-06T09:40:37.298Z,99.90
2019-02-06T09:43:06.744Z,99.90
2019-02-06T09:45:36.171Z,99.90
2019-02-06T09:48:05.918Z,99.90
2019-02-06T09:50:37.349Z,99.90
2019-02-06T09:53:06.837Z,99.90
2019-02-06T09:55:37.479Z,99.90
2019-02-06T09:58:07.002Z,99.90
2019-02-06T10:00:38.503Z,99.90
2019-02-06T10:03:08.129Z,99.90
2019-02-06T10:05:38.910Z,99.90
2019-02-06T10:08:08.368Z,99.90
2019-02-06T10:10:37.852Z,99.90
2019-02-06T10:13:07.325Z,99.90
2019-02-06T10:15:38.465Z,99.90
2019-02-06T10:18:07.945Z,99.90
2019-02-06T10:20:41.370Z,99.90
2019-02-06T10:23:10.891Z,99.90
2019-02-06T10:25:41.851Z,99.90
2019-02-06T10:28:12.122Z,99.90
2019-02-06T10:30:44.476Z,99.90
2019-02-06T10:33:14.009Z,99.90
2019-02-06T10:35:44.785Z,99.90
2019-02-06T10:38:14.298Z,99.90
2019-02-06T10:40:45.215Z,99.90
2019-02-06T10:43:14.690Z,99.90
2019-02-06T10:45:45.399Z,99.90
2019-02-06T10:48:14.812Z,99.90
2019-02-06T10:50:47.666Z,99.90
2019-02-06T10:53:17.087Z,99.90
2019-02-06T10:55:48.860Z,99.90
2019-02-06T10:58:20.438Z,99.90
2019-02-06T11:00:54.472Z,99.90
2019-02-06T11:03:23.964Z,99.90
2019-02-06T11:05:54.699Z,99.90
2019-02-06T11:08:24.180Z,99.90
2019-02-06T11:10:55.190Z,99.90
2019-02-06T11:13:24.753Z,99.90
2019-02-06T11:15:55.890Z,99.90
2019-02-06T11:18:25.379Z,99.90
2019-02-06T11:20:56.317Z,99.90
2019-02-06T11:23:25.803Z,99.90
2019-02-06T11:25:55.810Z,99.50
2019-02-06T11:28:25.229Z,99.90
2019-02-06T11:30:57.080Z,95.50
2019-02-06T11:33:25.846Z,98.30
2019-02-06T11:35:55.368Z,97.60
2019-02-06T11:38:27.805Z,96.00
2019-02-06T11:40:56.046Z,96.30
2019-02-06T11:43:25.534Z,94.60
2019-02-06T11:45:56.577Z,96.20
2019-02-06T11:48:25.975Z,95.40
2019-02-06T11:50:55.490Z,97.60
2019-02-06T11:53:26.518Z,94.70
2019-02-06T11:55:56.086Z,89.10
2019-02-06T11:58:25.479Z,88.70
2019-02-06T12:01:13.066Z,93.70
2019-02-06T12:03:42.542Z,94.90
2019-02-06T12:06:12.370Z,94.00
2019-02-06T12:08:41.843Z,93.30
2019-02-06T12:11:13.430Z,93.50
2019-02-06T12:13:42.921Z,91.20
2019-02-06T12:16:13.764Z,88.60
2019-02-06T12:18:43.220Z,88.50
2019-02-06T12:21:14.264Z,81.90
2019-02-06T12:23:43.754Z,83.10
2019-02-06T12:26:14.583Z,90.70
2019-02-06T12:28:44.074Z,87.20
2019-02-06T12:31:13.595Z,83.40
2019-02-06T12:33:43.075Z,84.50
2019-02-06T12:36:15.844Z,82.80
2019-02-06T12:38:53.139Z,80.50
2019-02-06T12:41:17.763Z,79.80
2019-02-06T12:43:47.247Z,84.10
2019-02-06T12:46:18.270Z,90.00
2019-02-06T12:48:47.754Z,89.30
2019-02-06T12:51:17.172Z,90.40
2019-02-06T12:53:46.678Z,92.00
2019-02-06T12:56:16.103Z,92.10
2019-02-06T12:58:45.629Z,93.10
2019-02-06T13:01:16.802Z,91.40
2019-02-06T13:03:46.414Z,91.10
2019-02-06T13:06:17.303Z,90.40
2019-02-06T13:08:47.714Z,92.40
2019-02-06T13:11:17.200Z,91.30
2019-02-06T13:13:46.707Z,95.00
2019-02-06T13:16:17.483Z,99.90
2019-02-06T13:18:46.999Z,99.90
2019-02-06T13:21:16.528Z,99.90
2019-02-06T13:23:46.039Z,99.90
2019-02-06T13:26:15.550Z,99.90
2019-02-06T13:28:45.050Z,99.90
2019-02-06T13:31:15.898Z,99.90
2019-02-06T13:33:45.412Z,99.90
2019-02-06T13:36:15.291Z,99.90
2019-02-06T13:38:44.803Z,99.90
2019-02-06T13:41:15.491Z,99.90
2019-02-06T13:43:44.939Z,99.90
2019-02-06T13:46:14.424Z,99.90
2019-02-06T13:48:43.949Z,99.90
2019-02-06T13:51:19.055Z,99.90
2019-02-06T13:53:46.465Z,99.90
2019-02-06T13:56:17.247Z,99.90
2019-02-06T13:58:46.766Z,99.90
2019-02-06T14:01:25.377Z,99.90
2019-02-06T14:03:48.618Z,99.90
2019-02-06T14:06:19.466Z,99.90
2019-02-06T14:08:48.979Z,99.90
2019-02-06T14:11:18.483Z,99.90
2019-02-06T14:13:48.017Z,99.90
2019-02-06T14:16:17.492Z,99.90
2019-02-06T14:18:47.303Z,99.90
2019-02-06T14:21:16.856Z,99.90
2019-02-06T14:23:52.162Z,99.90
2019-02-06T14:26:37.063Z,99.90
2019-02-06T14:29:26.310Z,99.90
2019-02-06T14:32:07.989Z,99.90
2019-02-06T14:34:58.727Z,99.90
2019-02-06T14:37:57.363Z,99.90
2019-02-06T14:40:30.135Z,99.90
2019-02-06T14:43:23.866Z,99.90
2019-02-06T14:46:21.670Z,99.90
2019-02-06T14:48:57.284Z,99.90
2019-02-06T14:51:44.378Z,99.90
2019-02-06T14:54:39.715Z,99.90
2019-02-06T14:57:19.381Z,99.90
2019-02-06T15:00:14.816Z,99.90
2019-02-06T15:03:05.651Z,99.90
2019-02-06T15:06:12.022Z,99.90
2019-02-06T15:08:59.187Z,99.90
2019-02-06T15:11:56.275Z,99.90
2019-02-06T15:14:31.950Z,99.90
2019-02-06T15:17:30.255Z,99.90
2019-02-06T15:20:03.098Z,99.90
2019-02-06T15:22:56.894Z,99.90
2019-02-06T15:25:35.622Z,99.90
2019-02-06T15:28:14.127Z,99.90
2019-02-06T15:31:00.364Z,99.90
2019-02-06T15:33:42.094Z,99.90
2019-02-06T15:36:33.925Z,99.90
2019-02-06T15:39:15.740Z,99.90
2019-02-06T15:42:07.846Z,99.90
2019-02-06T15:44:52.590Z,99.90
2019-02-06T15:47:31.092Z,99.90
2019-02-06T15:50:12.612Z,99.90
2019-02-06T15:53:04.947Z,99.90
2019-02-06T15:55:46.589Z,99.90
2019-02-06T15:58:30.980Z,99.90
2019-02-06T16:01:15.525Z,99.90
2019-02-06T16:04:28.389Z,99.90
2019-02-06T16:07:12.927Z,99.90
2019-02-06T16:10:18.835Z,99.90
2019-02-06T16:13:21.685Z,99.90
2019-02-06T16:16:21.516Z,99.90
2019-02-06T16:19:03.150Z,99.90
2019-02-06T16:21:52.811Z,99.90
2019-02-06T16:24:22.816Z,99.90
2019-02-06T16:27:05.639Z,99.90
2019-02-06T16:29:38.510Z,99.90
2019-02-06T16:32:17.096Z,99.90
2019-02-06T16:34:55.669Z,99.90
2019-02-06T16:37:46.218Z,99.90
2019-02-06T16:40:47.479Z,99.90
2019-02-06T16:43:28.696Z,99.90
2019-02-06T16:46:13.202Z,99.90
2019-02-06T16:49:07.151Z,99.90
2019-02-06T16:51:44.214Z,99.90
2019-02-06T16:54:35.046Z,99.90
2019-02-06T16:57:15.319Z,99.90
2019-02-06T17:00:02.986Z,99.90
2019-02-06T17:02:42.961Z,99.90
2019-02-06T17:05:33.565Z,99.90
2019-02-06T17:08:22.727Z,99.90
2019-02-06T17:11:02.855Z,99.90
2019-02-06T17:13:44.746Z,99.90
2019-02-06T17:16:38.622Z,99.90
2019-02-06T17:19:17.380Z,99.90
2019-02-06T17:22:10.797Z,99.90
2019-02-06T17:24:58.585Z,99.90
2019-02-06T17:27:49.388Z,99.90
2019-02-06T17:30:34.640Z,99.90
2019-02-06T17:33:40.795Z,99.90
2019-02-06T17:36:47.833Z,99.90
2019-02-06T17:39:24.480Z,99.90
2019-02-06T17:42:16.054Z,99.90
2019-02-06T17:45:11.454Z,99.90
2019-02-06T17:47:48.339Z,99.90
2019-02-06T17:50:36.092Z,99.90
2019-02-06T17:53:17.579Z,99.90
2019-02-06T17:55:47.123Z,99.90
2019-02-06T17:58:16.560Z,99.90
2019-02-06T18:01:00.350Z,99.90
2019-02-06T18:03:33.386Z,99.90
2019-02-06T18:06:02.917Z,99.90
2019-02-06T18:08:32.409Z,99.90
2019-02-06T18:11:01.929Z,99.90
2019-02-06T18:13:31.408Z,99.90
2019-02-06T18:16:00.948Z,99.90
2019-02-06T18:18:30.438Z,99.90
2019-02-06T18:21:01.267Z,99.90
2019-02-06T18:23:30.735Z,99.90
2019-02-06T18:26:00.272Z,99.90
2019-02-06T18:28:29.751Z,99.90
2019-02-06T18:31:00.711Z,99.90
2019-02-06T18:33:30.826Z,99.90
2019-02-06T18:36:00.274Z,99.90
2019-02-06T18:38:32.113Z,99.90
2019-02-06T18:41:02.246Z,99.90
2019-02-06T18:43:31.666Z,99.90
2019-02-06T18:46:01.259Z,99.90
2019-02-06T18:48:30.739Z,99.90
2019-02-06T18:51:01.963Z,99.90
2019-02-06T18:53:31.381Z,99.90
2019-02-06T18:56:02.211Z,99.90
2019-02-06T18:58:31.698Z,99.90
2019-02-06T19:01:02.623Z,99.90
2019-02-06T19:03:35.308Z,99.90
2019-02-06T19:06:04.834Z,99.90
2019-02-06T19:08:34.729Z,99.90
2019-02-06T19:11:04.235Z,99.90
2019-02-06T19:13:33.665Z,99.90
2019-02-06T19:16:04.583Z,99.90
2019-02-06T19:18:33.995Z,99.90
2019-02-06T19:21:03.455Z,99.90
2019-02-06T19:23:32.934Z,99.90
2019-02-06T19:26:03.876Z,99.90
2019-02-06T19:28:33.359Z,99.90
2019-02-06T19:31:02.776Z,99.90
2019-02-06T19:33:32.296Z,99.90
2019-02-06T19:36:01.820Z,99.90
2019-02-06T19:38:31.350Z,99.90
2019-02-06T19:41:02.432Z,99.90
2019-02-06T19:43:31.883Z,99.90
2019-02-06T19:46:01.304Z,99.90
2019-02-06T19:48:31.211Z,99.90
2019-02-06T19:51:02.103Z,99.90
2019-02-06T19:53:31.631Z,99.90
2019-02-06T19:56:02.595Z,99.90
2019-02-06T19:58:32.179Z,99.90
2019-02-06T20:01:01.752Z,99.90
2019-02-06T20:03:31.367Z,99.90
2019-02-06T20:06:02.247Z,99.90
2019-02-06T20:08:31.773Z,99.90
2019-02-06T20:11:01.252Z,99.90
2019-02-06T20:13:31.166Z,99.90
2019-02-06T20:16:02.027Z,99.90
2019-02-06T20:18:31.551Z,99.90
2019-02-06T20:21:01.062Z,99.90
2019-02-06T20:23:30.583Z,99.90
2019-02-06T20:26:00.067Z,99.90
2019-02-06T20:28:29.590Z,99.90
2019-02-06T20:30:59.443Z,99.90
2019-02-06T20:33:28.962Z,99.90
2019-02-06T20:35:59.756Z,99.90
2019-02-06T20:38:29.204Z,99.90
2019-02-06T20:40:58.708Z,99.90
2019-02-06T20:43:28.164Z,99.90
2019-02-06T20:45:58.949Z,99.90
2019-02-06T20:48:28.406Z,99.90
2019-02-06T20:50:57.832Z,99.90
2019-02-06T20:53:27.368Z,99.90
2019-02-06T20:55:56.778Z,99.90
2019-02-06T20:58:26.233Z,99.90
2019-02-06T21:00:55.650Z,99.90
2019-02-06T21:03:25.580Z,99.90
2019-02-06T21:05:55.076Z,99.90
2019-02-06T21:08:24.518Z,99.90
2019-02-06T21:10:54.012Z,99.90
2019-02-06T21:13:32.921Z,99.90
2019-02-06T21:15:54.508Z,99.90
2019-02-06T21:18:24.460Z,99.90
2019-02-06T21:20:55.251Z,99.90
2019-02-06T21:23:24.818Z,99.90
2019-02-06T21:25:55.573Z,99.90
2019-02-06T21:28:25.033Z,99.90
2019-02-06T21:30:54.512Z,99.90
2019-02-06T21:33:24.332Z,99.90
2019-02-06T21:35:53.854Z,99.90
2019-02-06T21:38:23.347Z,99.90
2019-02-06T21:40:52.991Z,99.90
2019-02-06T21:43:22.574Z,99.90
2019-02-06T21:45:52.078Z,99.90
2019-02-06T21:48:22.333Z,99.90
2019-02-06T21:50:53.404Z,99.90
2019-02-06T21:53:22.887Z,99.90
2019-02-06T21:55:52.467Z,99.90
2019-02-06T21:58:21.874Z,99.90
2019-02-06T22:00:52.690Z,99.90
2019-02-06T22:03:22.383Z,99.90
2019-02-06T22:05:53.111Z,99.90
2019-02-06T22:08:22.532Z,99.90
2019-02-06T22:10:53.243Z,99.90
2019-02-06T22:13:22.734Z,99.90
2019-02-06T22:15:53.854Z,99.90
2019-02-06T22:18:23.438Z,99.90
2019-02-06T22:20:54.298Z,99.90
2019-02-06T22:23:23.791Z,99.90
2019-02-06T22:25:53.322Z,99.90
2019-02-06T22:28:22.732Z,99.90
2019-02-06T22:30:52.290Z,99.90
2019-02-06T22:33:21.701Z,99.90
2019-02-06T22:35:52.422Z,99.90
2019-02-06T22:38:21.940Z,99.90
2019-02-06T22:40:52.683Z,99.90
2019-02-06T22:43:22.172Z,99.90
2019-02-06T22:45:51.691Z,99.90
2019-02-06T22:48:21.181Z,99.90
2019-02-06T22:50:52.095Z,99.90
2019-02-06T22:53:21.587Z,99.90
2019-02-06T22:55:51.053Z,99.90
2019-02-06T22:58:21.037Z,99.90
2019-02-06T23:01:03.998Z,99.90
2019-02-06T23:03:36.232Z,99.90
2019-02-06T23:06:07.228Z,99.90
2019-02-06T23:08:36.706Z,99.90
2019-02-06T23:11:07.553Z,99.90
2019-02-06T23:13:37.108Z,99.90
2019-02-06T23:16:06.625Z,99.90
2019-02-06T23:18:36.181Z,99.90
2019-02-06T23:21:07.116Z,99.90
2019-02-06T23:23:36.991Z,99.90
2019-02-06T23:26:07.922Z,99.90
2019-02-06T23:28:37.412Z,99.90
2019-02-06T23:31:06.903Z,99.90
2019-02-06T23:33:36.436Z,99.90
2019-02-06T23:36:07.357Z,99.90
2019-02-06T23:38:36.874Z,99.90
2019-02-06T23:41:07.788Z,99.90
2019-02-06T23:43:38.847Z,99.90
2019-02-06T23:46:09.802Z,99.90
2019-02-06T23:48:39.326Z,99.90
2019-02-06T23:51:09.108Z,99.90
2019-02-06T23:53:38.629Z,99.90
2019-02-06T23:56:08.121Z,99.90
2019-02-06T23:58:37.629Z,99.90
